USTRANSCOM 7531


KNGU
Norfolk Naval Station (Chambers Field)
Norfolk, Virginia, US
BIKF
Keflavík International Airport
Reykjavík, , IS

Activity Log

Date Flight Route Aircraft Duration
01/01/2020 CMB7531 SBY J79 JFK J37 ALB J563 HO PORGY 5950N 6140N EPENI ELDIS B752 5h 38m

Route Details

Aircraft Information
Primary: Boeing 757-200SF
Backup: Not Available
Route Data
Distance: 2503nm
Sched. Duration: 6h 29m
Avg. Duration: 5h 38m (-91m)
Times Flown: 1
Recm'd Route: SBY J79 JFK J37 ALB J563 HO PORGY 5950N N6140 EPENI ELDIS ELDIS2M
Planned Altitude: 35,000ft
Origin Wx: KNGU 170859Z 25007KT 10SM CLR 03/M03 A2983 RMK AO2 SLP100 T00281033 50012 $
Dest. Wx: BIKF 170930Z 24012KT 9999 -SHSN FEW017 SCT034 01/00 Q0999 RESHGS
Notes: USTRANSCOM CONTRACT FLIGHT

Financial History
Total Freight: 40,830lbs
Average Load: 40,830lbs/flt
Fuel Used: 40,586lbs
Avg. Fuel Used: 40,586lbs/flt
Fuel Expense: $38,557
Avg. Fuel Expense: $38,557
Avg. Fuel Cost: $0.95/lbs
Total Gross Income: $89,418
Pilot Pay: $99
Total Expenses: $9,709
Total Revenue: $40,593
Average Revenue: $89,417.70